Time;durP1;ratioP1;P1;durP2;ratioP2;P2;SDS_P1;SDS_P2;PMS_P1;PMS_P2;Temp;Humidity;BMP_temperature;BMP_pressure;BME280_temperature;BME280_humidity;BME280_pressure;Samples;Min_cycle;Max_cycle;Signal;HPM_P1;HPM_P2
2022/10/27 00:01:43;;;;;;;5.20;2.38;;;;;;;14.20;100.00;102113.06;5094679;28;20048;-35
2022/10/27 00:04:08;;;;;;;5.67;1.90;;;;;;;14.16;100.00;102113.53;5094542;28;20052;-35
2022/10/27 00:06:34;;;;;;;6.90;2.33;;;;;;;14.14;100.00;102118.34;5094747;28;20032;-36
2022/10/27 00:08:59;;;;;;;7.00;2.20;;;;;;;14.10;100.00;102113.59;5095218;28;20384;-36
2022/10/27 00:11:24;;;;;;;5.10;2.20;;;;;;;14.07;100.00;102114.88;5094691;28;20028;-35
2022/10/27 00:13:50;;;;;;;5.85;2.60;;;;;;;14.13;100.00;102132.19;5094645;28;20396;-36
2022/10/27 00:16:16;;;;;;;4.85;2.17;;;;;;;14.03;100.00;102115.56;5094950;28;20069;-36
2022/10/27 00:18:42;;;;;;;6.20;2.38;;;;;;;13.94;100.00;102111.44;5094495;28;20032;-35
2022/10/27 00:21:10;;;;;;;4.47;2.17;;;;;;;13.87;100.00;102108.78;5094055;28;20020;-36
2022/10/27 00:23:37;;;;;;;7.32;2.40;;;;;;;13.85;100.00;102119.03;5094761;28;20119;-35
2022/10/27 00:26:03;;;;;;;7.30;2.50;;;;;;;13.89;100.00;102123.00;5094268;28;20024;-35
2022/10/27 00:28:29;;;;;;;9.38;2.88;;;;;;;13.85;100.00;102132.63;5094596;28;20028;-35
2022/10/27 00:31:02;;;;;;;4.47;2.53;;;;;;;13.83;100.00;102134.75;5093930;28;20577;-35
2022/10/27 00:33:28;;;;;;;6.65;2.53;;;;;;;13.81;100.00;102136.84;5094471;28;20031;-36
2022/10/27 00:35:53;;;;;;;5.90;2.40;;;;;;;13.78;100.00;102138.13;5093886;28;20039;-35
2022/10/27 00:38:20;;;;;;;5.40;2.42;;;;;;;13.70;100.00;102137.56;5094339;28;20020;-35
2022/10/27 00:40:46;;;;;;;8.10;2.40;;;;;;;13.67;100.00;102143.47;5094531;28;20035;-36
2022/10/27 00:43:26;;;;;;;4.80;2.30;;;;;;;13.60;100.00;102140.78;5094436;28;20028;-35
2022/10/27 00:45:55;;;;;;;6.60;2.40;;;;;;;13.57;100.00;102143.94;5093924;28;20028;-36
2022/10/27 00:48:23;;;;;;;9.13;2.40;;;;;;;13.57;100.00;102146.66;5093926;28;20110;-35
2022/10/27 00:50:48;;;;;;;6.03;2.83;;;;;;;13.53;100.00;102148.97;5094093;28;20110;-35
2022/10/27 00:53:14;;;;;;;6.20;2.50;;;;;;;13.54;100.00;102141.66;5094199;28;20066;-35
2022/10/27 00:55:40;;;;;;;6.03;2.58;;;;;;;13.48;100.00;102139.81;5093082;28;20085;-36
2022/10/27 00:58:08;;;;;;;;;;;;;;;13.56;100.00;102159.41;5094169;28;20028;-36
2022/10/27 01:00:35;;;;;;;7.97;3.00;;;;;;;13.36;100.00;102139.66;5093319;28;20352;-35
2022/10/27 01:03:01;;;;;;;4.85;2.65;;;;;;;13.37;100.00;102153.06;5093868;28;20122;-35
2022/10/27 01:05:28;;;;;;;;;;;;;;;13.49;100.00;102155.91;5094031;28;20036;-36
2022/10/27 01:07:56;;;;;;;11.57;3.78;;;;;;;13.30;100.00;102132.41;5093963;28;19911;-36
2022/10/27 01:10:22;;;;;;;6.20;2.60;;;;;;;13.38;100.00;102148.44;5093833;28;20520;-35
2022/10/27 01:12:48;;;;;;;;;;;;;;;13.42;100.00;102152.41;5094012;28;20115;-35
2022/10/27 01:15:14;;;;;;;5.95;2.90;;;;;;;13.30;100.00;102145.97;5093875;28;19994;-36
2022/10/27 01:18:21;;;;;;;7.28;3.03;;;;;;;13.34;100.00;102153.47;5093834;28;20028;-35
2022/10/27 01:21:17;;;;;;;3.88;2.63;;;;;;;13.30;100.00;102159.56;5050705;28;20044;-35
2022/10/27 01:24:16;;;;;;;5.90;2.58;;;;;;;13.27;100.00;102155.38;5050766;28;20053;-35
2022/10/27 01:26:52;;;;;;;5.50;2.72;;;;;;;13.27;100.00;102154.56;5051294;28;20051;-35
2022/10/27 01:29:29;;;;;;;5.85;3.20;;;;;;;13.15;100.00;102143.53;5050624;28;20043;-35
2022/10/27 01:32:06;;;;;;;5.10;2.78;;;;;;;13.25;100.00;102165.63;5050633;28;20102;-35
2022/10/27 01:35:01;;;;;;;5.25;2.90;;;;;;;13.28;100.00;102156.25;5050577;28;20041;-35
2022/10/27 01:37:38;;;;;;;5.07;3.10;;;;;;;13.23;100.00;102159.59;5010902;28;20038;-35
2022/10/27 01:40:19;;;;;;;6.65;3.17;;;;;;;13.25;100.00;102175.69;5011064;28;20073;-35
2022/10/27 01:42:45;;;;;;;6.05;2.92;;;;;;;13.24;100.00;102163.97;5010965;28;20179;-35
2022/10/27 01:45:13;;;;;;;5.43;2.70;;;;;;;13.20;100.00;102159.16;5010879;28;20128;-35
2022/10/27 01:47:39;;;;;;;6.78;3.17;;;;;;;13.17;100.00;102154.16;5010775;28;20045;-35
2022/10/27 01:50:05;;;;;;;8.13;3.55;;;;;;;13.22;100.00;102148.94;4994653;28;20354;-35
2022/10/27 01:53:00;;;;;;;6.47;2.97;;;;;;;13.28;100.00;102167.94;5011225;28;20042;-35
2022/10/27 01:55:25;;;;;;;4.55;3.05;;;;;;;13.19;100.00;102152.91;4937732;28;20044;-35
2022/10/27 01:58:29;;;;;;;5.97;2.90;;;;;;;13.30;100.00;102157.69;4972100;28;20073;-35
2022/10/27 02:01:04;;;;;;;6.90;2.63;;;;;;;13.26;100.00;102159.16;4971865;28;20038;-35
2022/10/27 02:03:47;;;;;;;8.18;2.88;;;;;;;13.24;100.00;102163.97;4971853;28;20074;-35
2022/10/27 02:06:20;;;;;;;4.38;2.70;;;;;;;13.20;100.00;102160.00;4971682;28;20043;-35
2022/10/27 02:08:53;;;;;;;6.78;2.97;;;;;;;13.12;100.00;102141.22;4971600;28;20157;-35
2022/10/27 02:11:19;;;;;;;5.63;2.55;;;;;;;13.15;100.00;102155.22;4971949;28;20034;-35
2022/10/27 02:13:45;;;;;;;5.60;2.50;;;;;;;13.19;100.00;102152.06;4984286;28;20456;-35
2022/10/27 02:16:21;;;;;;;8.07;2.88;;;;;;;13.14;100.00;102153.56;5010412;28;20501;-35
2022/10/27 02:18:56;;;;;;;7.03;2.92;;;;;;;13.16;100.00;102137.03;5014773;28;20034;-35
2022/10/27 02:21:23;;;;;;;5.15;2.60;;;;;;;13.03;100.00;102131.66;5014538;28;20029;-35
2022/10/27 02:23:49;;;;;;;5.25;2.55;;;;;;;13.04;100.00;102130.63;5014130;28;20037;-35
2022/10/27 02:26:23;;;;;;;4.70;2.60;;;;;;;13.07;100.00;102138.31;4997469;28;20037;-35
2022/10/27 02:28:55;;;;;;;6.55;2.67;;;;;;;13.04;100.00;102139.59;5014674;28;20042;-35
2022/10/27 02:31:26;;;;;;;5.05;2.75;;;;;;;13.00;100.00;102142.97;5032543;28;20489;-35
2022/10/27 02:33:52;;;;;;;4.95;2.88;;;;;;;12.98;100.00;102136.91;5074111;28;20074;-35
2022/10/27 02:36:17;;;;;;;7.90;2.90;;;;;;;12.99;100.00;102134.00;5074033;28;20153;-35
2022/10/27 02:38:42;;;;;;;3.88;2.45;;;;;;;12.98;100.00;102140.47;5095409;28;20047;-35
2022/10/27 02:41:08;;;;;;;5.37;3.07;;;;;;;12.98;100.00;102139.59;5096385;28;20023;-35
2022/10/27 02:43:33;;;;;;;6.83;2.90;;;;;;;12.95;100.00;102140.91;5096500;28;20661;-35
2022/10/27 02:45:58;;;;;;;5.90;2.47;;;;;;;12.96;100.00;102139.84;5095881;28;20448;-35
2022/10/27 02:48:24;;;;;;;6.07;2.53;;;;;;;12.96;100.00;102137.13;5096509;28;20020;-35
2022/10/27 02:50:49;;;;;;;5.73;2.57;;;;;;;12.93;100.00;102136.72;5095913;28;20379;-35
2022/10/27 02:53:14;;;;;;;3.47;2.30;;;;;;;12.88;100.00;102119.22;5095966;28;20036;-35
2022/10/27 02:55:40;;;;;;;7.90;3.00;;;;;;;12.86;100.00;102118.56;5094735;28;20280;-35
2022/10/27 02:58:05;;;;;;;8.00;3.10;;;;;;;12.93;100.00;102131.28;5096693;28;20027;-35
2022/10/27 03:00:30;;;;;;;5.70;2.83;;;;;;;12.94;100.00;102122.94;5096022;28;20024;-35
2022/10/27 03:02:55;;;;;;;6.97;2.77;;;;;;;12.91;100.00;102117.94;5095017;28;20036;-35
2022/10/27 03:05:21;;;;;;;7.90;3.17;;;;;;;12.91;100.00;102126.06;5095662;28;20270;-35
2022/10/27 03:07:46;;;;;;;5.40;3.27;;;;;;;12.89;100.00;102120.88;5096175;28;20035;-35
2022/10/27 03:10:11;;;;;;;5.97;3.10;;;;;;;12.92;100.00;102116.88;5095789;28;20059;-35
2022/10/27 03:12:37;;;;;;;6.67;2.97;;;;;;;12.87;100.00;102113.97;5095814;28;20540;-35
2022/10/27 03:15:02;;;;;;;5.97;2.63;;;;;;;12.83;100.00;102110.03;5096296;28;20455;-35
2022/10/27 03:17:27;;;;;;;5.32;2.88;;;;;;;12.82;100.00;102105.66;5096227;28;20031;-35
2022/10/27 03:19:53;;;;;;;8.90;3.00;;;;;;;12.80;100.00;102113.19;5095358;28;20028;-35
2022/10/27 03:22:18;;;;;;;6.47;3.10;;;;;;;12.75;100.00;102102.13;5095571;28;20468;-35
2022/10/27 03:24:43;;;;;;;7.53;3.30;;;;;;;12.65;100.00;102080.88;5095560;28;20294;-35
2022/10/27 03:27:09;;;;;;;7.77;2.87;;;;;;;12.79;100.00;102097.94;5095773;28;20035;-35
2022/10/27 03:29:34;;;;;;;9.13;3.30;;;;;;;12.77;100.00;102094.59;5095021;28;20027;-35
2022/10/27 03:31:59;;;;;;;18.07;3.27;;;;;;;12.77;100.00;102100.03;5096292;28;20645;-35
2022/10/27 03:34:25;;;;;;;5.07;2.90;;;;;;;12.77;100.00;102102.75;5095566;28;20058;-35
2022/10/27 03:36:50;;;;;;;6.10;2.70;;;;;;;12.79;100.00;102103.38;5095654;28;20457;-35
2022/10/27 03:39:16;;;;;;;6.45;2.78;;;;;;;12.74;100.00;102098.59;5095476;28;20288;-35
2022/10/27 03:41:41;;;;;;;8.40;2.90;;;;;;;12.70;100.00;102100.06;5095713;28;20020;-35
2022/10/27 03:44:06;;;;;;;9.60;3.20;;;;;;;12.69;100.00;102105.69;5095165;28;20332;-35
2022/10/27 03:46:32;;;;;;;5.80;2.77;;;;;;;12.66;100.00;102093.41;5095679;28;20024;-35
2022/10/27 03:48:57;;;;;;;6.50;2.75;;;;;;;12.62;100.00;102095.69;5095815;28;20031;-35
2022/10/27 03:51:22;;;;;;;6.13;2.70;;;;;;;12.62;100.00;102098.41;5095090;28;20028;-35
2022/10/27 03:53:47;;;;;;;5.70;2.77;;;;;;;12.57;100.00;102095.50;5095821;28;20067;-35
2022/10/27 03:56:13;;;;;;;8.38;2.78;;;;;;;12.55;100.00;102086.75;5095178;28;20475;-35
2022/10/27 03:58:38;;;;;;;7.03;2.73;;;;;;;12.44;100.00;102060.28;5095690;28;20020;-35
2022/10/27 04:01:05;;;;;;;9.85;2.72;;;;;;;12.57;100.00;102097.38;5094834;28;20024;-35
2022/10/27 04:03:31;;;;;;;7.97;3.05;;;;;;;12.53;100.00;102091.53;5094703;28;20052;-35
2022/10/27 04:05:56;;;;;;;7.68;2.88;;;;;;;12.54;100.00;102089.66;5094454;28;20028;-35
2022/10/27 04:08:22;;;;;;;6.03;2.92;;;;;;;12.47;100.00;102089.69;5094730;28;20016;-35
2022/10/27 04:10:47;;;;;;;7.93;3.45;;;;;;;12.49;100.00;102097.63;5094541;28;20040;-35
2022/10/27 04:13:12;;;;;;;5.47;2.90;;;;;;;12.51;100.00;102098.25;5094348;28;20039;-35
2022/10/27 04:15:38;;;;;;;6.20;2.93;;;;;;;12.34;100.00;102085.13;5094428;28;20039;-35
2022/10/27 04:18:04;;;;;;;5.55;2.85;;;;;;;12.28;100.00;102077.03;5094726;28;20032;-35
2022/10/27 04:20:29;;;;;;;6.72;2.67;;;;;;;12.42;100.00;102091.38;5094097;28;20059;-35
2022/10/27 04:22:56;;;;;;;6.18;3.30;;;;;;;12.53;100.00;102113.25;5094330;28;20111;-35
2022/10/27 04:25:22;;;;;;;6.43;2.60;;;;;;;12.50;100.00;102113.69;5094304;28;20067;-35
2022/10/27 04:27:48;;;;;;;5.53;3.10;;;;;;;12.48;100.00;102112.22;5094659;28;20047;-35
2022/10/27 04:30:13;;;;;;;5.87;3.00;;;;;;;12.43;100.00;102110.16;5094287;28;20032;-35
2022/10/27 04:32:38;;;;;;;9.18;3.58;;;;;;;12.45;100.00;102118.09;5094803;28;20052;-35
2022/10/27 04:35:07;;;;;;;8.97;3.10;;;;;;;12.45;100.00;102115.38;5094869;28;20028;-35
2022/10/27 04:37:33;;;;;;;9.65;3.40;;;;;;;12.38;100.00;102112.66;5092903;28;20439;-35
2022/10/27 04:39:59;;;;;;;6.45;3.28;;;;;;;12.31;100.00;102106.44;5093004;28;20035;-35
2022/10/27 04:42:24;;;;;;;6.05;3.65;;;;;;;12.26;100.00;102103.53;5094072;28;20085;-35
2022/10/27 04:44:49;;;;;;;8.15;3.78;;;;;;;12.27;100.00;102111.44;5093955;28;20082;-35
2022/10/27 04:47:15;;;;;;;7.60;3.47;;;;;;;12.17;100.00;102112.94;5094326;28;20020;-35
2022/10/27 04:49:40;;;;;;;6.20;3.43;;;;;;;12.16;100.00;102119.41;5093896;28;20734;-35
2022/10/27 04:52:05;;;;;;;7.10;3.73;;;;;;;12.07;100.00;102116.91;5093185;28;20408;-35
2022/10/27 04:54:31;;;;;;;6.50;3.70;;;;;;;12.00;100.00;102116.06;5093814;28;20169;-35
2022/10/27 04:56:56;;;;;;;5.57;3.87;;;;;;;12.01;100.00;102123.16;5093901;28;20068;-35
2022/10/27 04:59:21;;;;;;;6.90;3.50;;;;;;;11.98;100.00;102120.88;5094317;28;20067;-35
2022/10/27 05:01:47;;;;;;;7.65;3.75;;;;;;;12.03;100.00;102121.06;5093461;28;20266;-35
2022/10/27 05:04:12;;;;;;;5.77;3.90;;;;;;;12.02;100.00;102122.13;5094679;28;20052;-35
2022/10/27 05:06:37;;;;;;;9.37;4.33;;;;;;;12.04;100.00;102127.31;5093346;28;20031;-35
2022/10/27 05:09:03;;;;;;;10.57;4.37;;;;;;;12.00;100.00;102116.06;5093366;28;20398;-35
2022/10/27 05:11:28;;;;;;;9.63;3.65;;;;;;;12.01;100.00;102106.06;5093270;28;20434;-35
2022/10/27 05:13:53;;;;;;;7.60;3.78;;;;;;;12.11;100.00;102114.63;5093773;28;20050;-35
2022/10/27 05:16:19;;;;;;;10.00;3.70;;;;;;;12.14;100.00;102121.47;5093663;28;20024;-35
2022/10/27 05:18:44;;;;;;;6.47;3.33;;;;;;;12.10;100.00;102110.22;5093527;28;20361;-35
2022/10/27 05:21:10;;;;;;;8.97;3.67;;;;;;;12.11;100.00;102112.72;5093568;28;20372;-35
2022/10/27 05:23:35;;;;;;;6.50;4.13;;;;;;;12.16;100.00;102116.69;5093522;28;20023;-35
2022/10/27 05:26:01;;;;;;;7.00;3.53;;;;;;;12.15;100.00;102112.28;5093276;28;20380;-34
2022/10/27 05:28:26;;;;;;;6.30;3.67;;;;;;;12.06;100.00;102093.53;5093762;28;20032;-34
2022/10/27 05:30:59;;;;;;;6.47;3.77;;;;;;;12.19;100.00;102113.53;5093193;28;20063;-34
2022/10/27 05:33:25;;;;;;;6.10;3.47;;;;;;;12.23;100.00;102112.09;5093651;28;20710;-34
2022/10/27 05:35:51;;;;;;;9.27;4.45;;;;;;;12.22;100.00;102113.13;5092841;28;20024;-34
2022/10/27 05:38:17;;;;;;;11.75;3.85;;;;;;;12.25;100.00;102120.81;5093135;28;20032;-34
2022/10/27 05:40:42;;;;;;;7.85;3.58;;;;;;;12.27;100.00;102116.88;5093057;28;20081;-35
2022/10/27 05:43:08;;;;;;;6.90;4.07;;;;;;;12.22;100.00;102105.00;5093362;28;20031;-34
2022/10/27 05:45:34;;;;;;;8.85;4.10;;;;;;;12.23;100.00;102106.66;5092946;28;20039;-34
2022/10/27 05:48:04;;;;;;;10.63;4.10;;;;;;;12.31;100.00;102112.69;5093231;28;20375;-35
2022/10/27 05:50:30;;;;;;;7.75;4.03;;;;;;;12.32;100.00;102103.50;5092342;28;20020;-34
2022/10/27 05:52:56;;;;;;;5.90;3.90;;;;;;;12.35;100.00;102104.97;5093691;28;20377;-34
2022/10/27 05:55:22;;;;;;;6.30;3.63;;;;;;;12.38;100.00;102101.81;5092613;28;20028;-34
2022/10/27 05:58:03;;;;;;;7.68;3.88;;;;;;;12.37;100.00;102100.16;5091794;28;20058;-34
2022/10/27 06:00:36;;;;;;;6.63;3.90;;;;;;;12.34;100.00;102092.44;5092396;28;20116;-34
2022/10/27 06:03:04;;;;;;;7.95;3.67;;;;;;;12.36;100.00;102098.50;5092965;28;20102;-34
2022/10/27 06:05:31;;;;;;;8.85;3.65;;;;;;;12.31;100.00;102095.59;5092813;28;20056;-34
2022/10/27 06:07:57;;;;;;;8.82;4.07;;;;;;;12.38;100.00;102104.53;5092089;28;20070;-34
2022/10/27 06:10:23;;;;;;;5.50;3.55;;;;;;;12.38;100.00;102096.41;5092670;28;20444;-34
2022/10/27 06:12:49;;;;;;;8.35;3.88;;;;;;;12.38;100.00;102097.22;5092745;28;20100;-34
2022/10/27 06:15:14;;;;;;;5.70;3.72;;;;;;;12.35;100.00;102086.00;5090802;28;20024;-34
2022/10/27 06:17:40;;;;;;;7.33;3.67;;;;;;;12.36;100.00;102091.19;5092641;28;20032;-34
2022/10/27 06:20:06;;;;;;;8.03;3.63;;;;;;;12.43;100.00;102087.63;5093059;28;20030;-34
2022/10/27 06:22:31;;;;;;;;;;;;;;;12.48;100.00;102095.94;5092756;28;20266;-34
2022/10/27 06:24:56;;;;;;;5.43;3.33;;;;;;;12.40;100.00;102096.19;5092757;28;20324;-34
2022/10/27 06:27:22;;;;;;;7.07;3.10;;;;;;;12.39;100.00;102081.78;5092451;28;20036;-35
2022/10/27 06:29:47;;;;;;;6.07;3.30;;;;;;;12.41;100.00;102093.28;5092514;28;20107;-35
2022/10/27 06:32:12;;;;;;;10.87;3.97;;;;;;;12.40;100.00;102086.19;5092146;28;20345;-35
2022/10/27 06:34:38;;;;;;;6.37;3.03;;;;;;;12.40;100.00;102090.78;5092843;28;20063;-35
2022/10/27 06:37:04;;;;;;;5.70;3.50;;;;;;;12.43;100.00;102084.91;5093106;28;20108;-35
2022/10/27 06:39:30;;;;;;;7.18;3.33;;;;;;;12.44;100.00;102087.41;5092865;28;20028;-35
2022/10/27 06:41:55;;;;;;;4.68;3.17;;;;;;;12.43;100.00;102082.19;5092955;28;20038;-35
2022/10/27 06:44:22;;;;;;;8.20;3.40;;;;;;;12.43;100.00;102082.19;5092715;28;20430;-35
2022/10/27 06:46:48;;;;;;;5.10;3.00;;;;;;;12.46;100.00;102082.63;5092804;28;20043;-35
2022/10/27 06:49:13;;;;;;;7.40;3.30;;;;;;;12.46;100.00;102084.50;5093089;28;20032;-35
2022/10/27 06:51:38;;;;;;;8.07;3.70;;;;;;;12.40;100.00;102071.78;5092409;28;20396;-35
2022/10/27 06:54:03;;;;;;;8.57;3.80;;;;;;;12.40;100.00;102075.34;5093112;28;20056;-35
2022/10/27 06:56:29;;;;;;;8.30;3.53;;;;;;;12.44;100.00;102076.53;5092312;28;20034;-35
2022/10/27 06:58:54;;;;;;;8.60;3.53;;;;;;;12.45;100.00;102067.38;5092838;28;20254;-35
2022/10/27 07:01:20;;;;;;;7.30;3.17;;;;;;;12.46;100.00;102077.19;5092516;28;20028;-35
2022/10/27 07:03:45;;;;;;;6.15;3.28;;;;;;;12.47;100.00;102070.72;5094354;28;20044;-35
2022/10/27 07:06:10;;;;;;;6.97;3.67;;;;;;;12.43;100.00;102055.91;5096125;28;20384;-35
2022/10/27 07:08:36;;;;;;;6.57;3.23;;;;;;;12.54;100.00;102067.97;5096009;28;20032;-35
2022/10/27 07:11:01;;;;;;;8.40;3.70;;;;;;;12.54;100.00;102068.81;5096184;28;20286;-35
2022/10/27 07:13:26;;;;;;;6.22;3.92;;;;;;;12.46;100.00;102069.03;5096906;28;20056;-35
2022/10/27 07:15:52;;;;;;;7.30;3.85;;;;;;;12.59;100.00;102073.56;5096443;28;20043;-35
2022/10/27 07:18:17;;;;;;;6.23;3.73;;;;;;;12.60;100.00;102080.69;5096104;28;20387;-35
2022/10/27 07:20:44;;;;;;;6.33;4.33;;;;;;;12.54;100.00;102071.53;5095853;28;20032;-35
2022/10/27 07:23:10;;;;;;;6.43;3.58;;;;;;;12.66;100.00;102084.44;5095290;28;20028;-35
2022/10/27 07:25:36;;;;;;;5.32;3.33;;;;;;;12.69;100.00;102082.13;5095776;28;20063;-35
2022/10/27 07:28:04;;;;;;;8.32;3.35;;;;;;;12.72;100.00;102080.84;5095634;28;20441;-35
2022/10/27 07:30:33;;;;;;;7.25;3.53;;;;;;;12.66;100.00;102065.44;5095656;28;20056;-35
2022/10/27 07:32:58;;;;;;;6.25;3.63;;;;;;;12.76;100.00;102077.47;5096159;28;20036;-35
2022/10/27 07:35:25;;;;;;;7.15;3.72;;;;;;;12.78;100.00;102069.94;5095620;28;20027;-35
2022/10/27 07:37:51;;;;;;;9.15;4.05;;;;;;;12.74;100.00;102051.63;5096074;28;20380;-35
2022/10/27 07:40:18;;;;;;;7.13;3.30;;;;;;;12.88;100.00;102062.19;5096096;28;20036;-35
2022/10/27 07:42:48;;;;;;;9.45;3.83;;;;;;;12.84;100.00;102050.09;5096144;28;20418;-35
2022/10/27 07:45:15;;;;;;;7.47;3.78;;;;;;;13.01;100.00;102071.31;5095372;28;20119;-35
2022/10/27 07:47:49;;;;;;;5.72;3.40;;;;;;;13.07;100.00;102065.84;5095350;28;20110;-35
2022/10/27 07:50:15;;;;;;;6.93;3.55;;;;;;;13.14;100.00;102071.25;5095523;28;20019;-35
2022/10/27 07:52:46;;;;;;;5.03;3.08;;;;;;;13.26;100.00;102074.13;5095559;28;20134;-35
2022/10/27 07:55:13;;;;;;;6.85;3.50;;;;;;;13.34;100.00;102071.97;5095272;28;20067;-35
2022/10/27 07:57:39;;;;;;;4.68;3.20;;;;;;;13.43;100.00;102077.16;5095376;28;20042;-35
2022/10/27 08:00:07;;;;;;;5.55;3.72;;;;;;;13.53;100.00;102082.94;5094737;28;20036;-35
2022/10/27 08:02:32;;;;;;;9.77;3.58;;;;;;;13.60;100.00;102094.56;5095782;28;20028;-35
2022/10/27 08:04:58;;;;;;;5.45;3.28;;;;;;;13.59;100.00;102069.28;5094748;28;20463;-35
2022/10/27 08:07:24;;;;;;;5.73;3.07;;;;;;;13.71;100.00;102080.25;5095049;28;20036;-35
2022/10/27 08:09:49;;;;;;;6.70;3.13;;;;;;;13.73;100.00;102082.78;5094887;28;20358;-35
2022/10/27 08:12:14;;;;;;;6.23;2.93;;;;;;;13.78;100.00;102072.06;5095340;28;20292;-35
2022/10/27 08:14:40;;;;;;;4.70;3.33;;;;;;;13.81;100.00;102071.59;5094653;28;20626;-35
2022/10/27 08:17:05;;;;;;;5.07;3.20;;;;;;;13.82;100.00;102076.00;5094793;28;20035;-35
2022/10/27 08:19:30;;;;;;;5.73;3.27;;;;;;;13.83;100.00;102066.78;5094719;28;20266;-35
2022/10/27 08:21:55;;;;;;;7.73;3.23;;;;;;;13.87;100.00;102059.84;5094680;28;20028;-35
2022/10/27 08:24:21;;;;;;;7.60;2.90;;;;;;;13.94;100.00;102063.31;5094601;28;20289;-35
2022/10/27 08:26:46;;;;;;;5.60;2.83;;;;;;;13.99;100.00;102063.47;5094781;28;20103;-35
2022/10/27 08:29:11;;;;;;;4.77;2.60;;;;;;;14.00;100.00;102059.69;5094843;28;20028;-35
2022/10/27 08:31:37;;;;;;;4.93;2.90;;;;;;;14.04;100.00;102063.66;5094144;28;20277;-35
2022/10/27 08:34:02;;;;;;;6.47;2.70;;;;;;;14.07;100.00;102057.78;5094471;28;20157;-35
2022/10/27 08:36:27;;;;;;;6.93;3.00;;;;;;;14.17;100.00;102068.13;5094754;28;20073;-35
2022/10/27 08:38:53;;;;;;;4.93;2.50;;;;;;;14.28;100.00;102048.34;5094765;28;20035;-35
2022/10/27 08:41:27;;;;;;;5.47;2.83;;;;;;;14.42;100.00;102055.28;5094551;28;20345;-35
2022/10/27 08:44:10;;;;;;;6.43;2.95;;;;;;;14.57;100.00;102054.94;5094255;28;20107;-35
2022/10/27 08:46:57;;;;;;;5.55;2.78;;;;;;;14.72;100.00;102046.38;5094498;28;20031;-35
2022/10/27 08:49:35;;;;;;;4.03;2.33;;;;;;;14.85;100.00;102053.53;5094927;28;20031;-35
2022/10/27 08:52:24;;;;;;;6.85;2.63;;;;;;;14.98;100.00;102057.97;5094883;28;20035;-35
2022/10/27 08:54:53;;;;;;;5.10;2.10;;;;;;;15.08;100.00;102050.91;5094815;28;20032;-35
2022/10/27 08:57:32;;;;;;;5.15;2.15;;;;;;;15.19;100.00;102041.13;5094050;28;20027;-35
2022/10/27 08:59:58;;;;;;;5.53;2.53;;;;;;;15.19;100.00;102024.75;5094819;28;20031;-35
2022/10/27 09:02:33;;;;;;;3.55;2.05;;;;;;;15.34;99.21;102041.50;5093659;28;20472;-35
2022/10/27 09:05:17;;;;;;;6.47;2.10;;;;;;;15.42;99.86;102037.59;5093644;28;20059;-35
2022/10/27 09:07:56;;;;;;;4.55;1.73;;;;;;;15.45;99.28;102024.34;5093719;28;20093;-35
2022/10/27 09:10:40;;;;;;;3.22;1.70;;;;;;;15.54;97.92;102013.91;5093741;28;20464;-35
2022/10/27 09:13:24;;;;;;;4.75;2.05;;;;;;;15.63;94.57;102015.28;5094248;28;20028;-35
2022/10/27 09:15:54;;;;;;;4.88;1.60;;;;;;;15.70;95.98;102013.25;5094419;28;20035;-35
2022/10/27 09:18:40;;;;;;;6.40;2.30;;;;;;;15.81;95.30;102008.03;5093921;28;20020;-35
2022/10/27 09:21:14;;;;;;;5.43;1.70;;;;;;;15.84;93.85;101994.75;5093876;28;20028;-35
2022/10/27 09:23:48;;;;;;;3.78;1.65;;;;;;;15.98;94.73;102008.16;5093819;28;20575;-35
2022/10/27 09:26:15;;;;;;;4.38;1.58;;;;;;;16.09;92.08;102016.31;5093333;28;20024;-35
2022/10/27 09:28:45;;;;;;;3.60;1.50;;;;;;;16.12;93.28;102017.75;5093512;28;20118;-35
2022/10/27 09:31:15;;;;;;;2.45;1.40;;;;;;;16.20;91.83;102004.56;5094226;28;20016;-35
2022/10/27 09:33:51;;;;;;;6.20;1.73;;;;;;;16.25;92.06;101997.53;5093974;28;20032;-35
2022/10/27 09:36:20;;;;;;;3.25;1.45;;;;;;;16.36;91.48;102000.25;5093460;28;20052;-36
2022/10/27 09:38:45;;;;;;;3.83;1.60;;;;;;;16.39;90.37;101996.19;5093920;28;20067;-35
2022/10/27 09:41:11;;;;;;;6.03;1.65;;;;;;;16.46;90.81;101995.00;5092293;28;20125;-35
2022/10/27 09:43:36;;;;;;;;;;;;;;;16.51;93.70;102002.47;5093727;28;20068;-35
2022/10/27 09:46:20;;;;;;;4.57;1.45;;;;;;;16.57;89.29;101996.03;5093744;28;19911;-35
2022/10/27 09:48:46;;;;;;;3.90;1.40;;;;;;;16.66;88.98;101985.53;5093330;28;20407;-35
2022/10/27 09:51:19;;;;;;;5.40;1.60;;;;;;;16.76;91.23;101977.56;5093525;28;20032;-35
2022/10/27 09:53:51;;;;;;;4.70;1.50;;;;;;;16.80;88.40;101977.91;5093235;28;20043;-35
2022/10/27 09:56:28;;;;;;;3.95;1.50;;;;;;;16.91;88.99;101979.75;5093647;28;20115;-35
2022/10/27 09:58:59;;;;;;;;;;;;;;;17.06;91.04;101976.47;5094113;28;20035;-35
2022/10/27 10:01:48;;;;;;;5.78;2.10;;;;;;;17.22;91.18;101981.09;5093564;28;20268;-35
2022/10/27 10:04:28;;;;;;;4.80;1.42;;;;;;;17.33;86.52;101982.94;5093606;28;20052;-35
2022/10/27 10:07:05;;;;;;;3.80;1.65;;;;;;;17.42;86.13;101980.59;5093651;28;20028;-35
2022/10/27 10:09:35;;;;;;;3.63;1.42;;;;;;;17.60;84.95;101996.75;5093331;28;20032;-35
2022/10/27 10:12:33;;;;;;;5.15;1.40;;;;;;;17.78;87.48;101986.66;5093638;28;20024;-35
2022/10/27 10:15:10;;;;;;;4.53;1.48;;;;;;;17.82;85.80;101965.94;5050883;28;20045;-35
2022/10/27 10:17:37;;;;;;;3.75;1.20;;;;;;;17.94;83.14;101972.13;5050420;28;20051;-35
2022/10/27 10:20:05;;;;;;;4.05;1.35;;;;;;;17.98;80.89;101963.16;5050715;28;20033;-36
2022/10/27 10:22:33;;;;;;;3.75;1.33;;;;;;;17.98;82.52;101956.84;5050391;28;20033;-36
2022/10/27 10:25:21;;;;;;;2.85;1.33;;;;;;;18.00;83.03;101965.63;5034273;28;20346;-36
2022/10/27 10:27:55;;;;;;;2.95;1.30;;;;;;;17.94;81.61;101955.69;5050661;28;20033;-36
2022/10/27 10:30:21;;;;;;;3.00;1.65;;;;;;;17.86;83.48;101959.72;5050331;28;20508;-36
2022/10/27 10:32:47;;;;;;;;;;;;;;;17.92;83.13;101960.59;5051066;28;20111;-36
2022/10/27 10:35:37;;;;;;;3.30;1.23;;;;;;;17.89;82.94;101958.38;5050227;28;19913;-36
2022/10/27 10:38:27;;;;;;;3.00;1.58;;;;;;;17.85;85.18;101946.25;5051385;28;20109;-36
2022/10/27 10:40:58;;;;;;;4.75;1.67;;;;;;;17.96;82.42;101961.75;5054586;28;20037;-36
2022/10/27 10:43:24;;;;;;;4.65;1.70;;;;;;;17.98;81.68;101959.59;5054361;28;20041;-36
2022/10/27 10:45:53;;;;;;;;;;;;;;;18.01;84.88;101948.16;5054374;28;20213;-36
2022/10/27 10:48:41;;;;;;;4.03;1.48;;;;;;;18.01;84.58;101938.03;5054213;28;20006;-35
2022/10/27 10:51:08;;;;;;;4.18;1.45;;;;;;;18.06;81.77;101945.47;5084981;28;20051;-36
2022/10/27 10:53:41;;;;;;;5.03;1.42;;;;;;;18.06;82.59;101937.25;5096854;28;20040;-36
2022/10/27 10:56:27;;;;;;;5.32;1.60;;;;;;;18.18;83.47;101940.69;5096627;28;20466;-36
2022/10/27 10:59:14;;;;;;;3.42;1.40;;;;;;;18.28;84.52;101929.03;5096947;28;20038;-35
2022/10/27 11:02:11;;;;;;;4.63;1.33;;;;;;;18.30;83.84;101926.88;5096852;28;20038;-36
2022/10/27 11:04:41;;;;;;;;;;;;;;;18.34;85.46;101929.91;5096657;28;20052;-36
2022/10/27 11:07:15;;;;;;;6.38;1.45;;;;;;;18.28;84.25;101929.84;5095914;28;19915;-36
2022/10/27 11:10:07;;;;;;;3.38;1.38;;;;;;;18.27;82.09;101928.19;5096215;28;20115;-36
2022/10/27 11:12:38;;;;;;;5.35;1.25;;;;;;;18.26;81.24;101920.25;5096665;28;20107;-36
2022/10/27 11:15:23;;;;;;;4.38;1.33;;;;;;;18.27;81.40;101930.09;5096109;28;20468;-36
2022/10/27 11:17:51;;;;;;;5.38;1.17;;;;;;;18.24;81.51;101928.69;5096328;28;20055;-36
2022/10/27 11:20:21;;;;;;;6.82;1.40;;;;;;;18.21;82.16;101922.94;5096535;28;20032;-36
2022/10/27 11:22:50;;;;;;;6.10;1.42;;;;;;;18.26;81.78;101926.56;5096746;28;20034;-36
2022/10/27 11:25:19;;;;;;;7.78;1.45;;;;;;;18.21;83.30;101923.75;5096003;28;20070;-36
2022/10/27 11:28:04;;;;;;;6.72;1.23;;;;;;;18.18;83.19;101915.22;5095624;28;20140;-36
2022/10/27 11:30:36;;;;;;;5.13;1.40;;;;;;;18.16;82.91;101920.97;5095773;28;20036;-36
2022/10/27 11:33:11;;;;;;;6.72;1.75;;;;;;;18.19;84.47;101925.06;5095874;28;20036;-36